createdAt,value
2023-04-18T00:01:29.345Z,6.45
2023-04-18T00:04:14.468Z,6.43
2023-04-18T00:07:00.359Z,6.41
2023-04-18T00:09:45.438Z,6.39
2023-04-18T00:12:31.325Z,6.36
2023-04-18T00:15:16.529Z,6.33
2023-04-18T00:18:03.084Z,6.31
2023-04-18T00:20:47.888Z,6.29
2023-04-18T00:23:33.691Z,6.27
2023-04-18T00:26:18.595Z,6.21
2023-04-18T00:29:06.046Z,6.17
2023-04-18T00:31:53.105Z,6.17
2023-04-18T00:34:38.407Z,6.15
2023-04-18T00:37:22.991Z,6.18
2023-04-18T00:40:08.570Z,6.23
2023-04-18T00:42:53.559Z,6.30
2023-04-18T00:45:38.576Z,6.31
2023-04-18T00:48:23.888Z,6.33
2023-04-18T00:51:09.506Z,6.37
2023-04-18T00:53:55.115Z,6.36
2023-04-18T00:56:40.439Z,6.40
2023-04-18T00:59:24.848Z,6.42
2023-04-18T01:02:09.851Z,6.42
2023-04-18T01:04:54.789Z,6.40
2023-04-18T01:07:42.739Z,6.42
2023-04-18T01:10:28.405Z,6.43
2023-04-18T01:13:17.695Z,6.43
2023-04-18T01:16:02.818Z,6.39
2023-04-18T01:18:48.018Z,6.41
2023-04-18T01:21:36.547Z,6.39
2023-04-18T01:24:23.892Z,6.41
2023-04-18T01:27:12.896Z,6.42
2023-04-18T01:29:57.978Z,6.41
2023-04-18T01:32:44.343Z,6.40
2023-04-18T01:35:30.262Z,6.41
2023-04-18T01:38:15.421Z,6.36
2023-04-18T01:41:01.663Z,6.37
2023-04-18T01:43:46.423Z,6.34
2023-04-18T01:46:31.370Z,6.31
2023-04-18T01:49:19.346Z,6.31
2023-04-18T01:52:04.219Z,6.31
2023-04-18T01:54:49.264Z,6.31
2023-04-18T01:57:36.137Z,6.33
2023-04-18T02:00:21.407Z,6.33
2023-04-18T02:03:06.279Z,6.32
2023-04-18T02:05:51.357Z,6.34
2023-04-18T02:08:36.294Z,6.37
2023-04-18T02:11:24.573Z,6.39
2023-04-18T02:14:09.399Z,6.42
2023-04-18T02:16:54.435Z,6.44
2023-04-18T02:19:39.467Z,6.42
2023-04-18T02:22:25.194Z,6.42
2023-04-18T02:25:10.440Z,6.42
2023-04-18T02:27:56.078Z,6.43
2023-04-18T02:30:41.119Z,6.39
2023-04-18T02:33:25.591Z,6.37
2023-04-18T02:36:14.505Z,6.37
2023-04-18T02:39:00.621Z,6.33
2023-04-18T02:41:45.565Z,6.35
2023-04-18T02:44:30.507Z,6.33
2023-04-18T02:47:15.529Z,6.30
2023-04-18T02:50:03.683Z,6.25
2023-04-18T02:52:49.088Z,6.27
2023-04-18T02:55:36.862Z,6.25
2023-04-18T02:58:22.185Z,6.29
2023-04-18T03:01:09.885Z,6.27
2023-04-18T03:04:19.900Z,6.28
2023-04-18T03:07:17.107Z,6.23
2023-04-18T03:10:02.433Z,6.22
2023-04-18T03:12:51.534Z,6.19
2023-04-18T03:15:37.161Z,6.15
2023-04-18T03:18:22.449Z,6.13
2023-04-18T03:21:08.665Z,6.10
2023-04-18T03:23:54.206Z,6.05
2023-04-18T03:26:40.166Z,6.05
2023-04-18T03:29:25.555Z,6.05
2023-04-18T03:32:10.895Z,6.07
2023-04-18T03:34:55.616Z,6.09
2023-04-18T03:37:40.647Z,6.13
2023-04-18T03:40:26.958Z,6.18
2023-04-18T03:43:16.610Z,6.27
2023-04-18T03:46:01.679Z,6.34
2023-04-18T03:48:47.068Z,6.41
2023-04-18T03:51:42.737Z,6.48
2023-04-18T03:54:27.543Z,6.56
2023-04-18T03:57:12.406Z,6.67
2023-04-18T03:59:57.437Z,6.77
2023-04-18T04:02:42.474Z,6.89
2023-04-18T04:05:30.261Z,6.98
2023-04-18T04:08:15.817Z,7.10
2023-04-18T04:11:00.436Z,7.24
2023-04-18T04:13:45.986Z,7.36
2023-04-18T04:16:32.911Z,7.48
2023-04-18T04:19:18.486Z,7.62
2023-04-18T04:22:33.760Z,7.73
2023-04-18T04:25:19.531Z,7.87
2023-04-18T04:28:06.128Z,8.01
2023-04-18T04:30:58.776Z,8.04
2023-04-18T04:33:44.287Z,8.06
2023-04-18T04:36:34.303Z,8.12
2023-04-18T04:39:20.608Z,8.22
2023-04-18T04:42:24.722Z,8.31
2023-04-18T04:45:16.788Z,8.47
2023-04-18T04:48:01.790Z,8.63
2023-04-18T04:50:57.892Z,8.81
2023-04-18T04:53:42.463Z,8.99
2023-04-18T04:56:27.545Z,9.15
2023-04-18T04:59:12.455Z,9.28
2023-04-18T05:01:59.688Z,9.41
2023-04-18T05:04:44.755Z,9.49
2023-04-18T05:07:29.959Z,9.63
2023-04-18T05:10:14.925Z,9.66
2023-04-18T05:12:59.889Z,9.76
2023-04-18T05:15:45.000Z,9.79
2023-04-18T05:18:31.609Z,9.84
2023-04-18T05:21:17.625Z,9.81
2023-04-18T05:24:03.012Z,9.80
2023-04-18T05:26:48.054Z,9.95
2023-04-18T05:29:33.282Z,10.12
2023-04-18T05:32:18.476Z,10.29
2023-04-18T05:35:03.593Z,10.41
2023-04-18T05:37:48.297Z,10.61
2023-04-18T05:40:33.370Z,10.91
2023-04-18T05:43:18.907Z,11.10
2023-04-18T05:46:04.108Z,11.30
2023-04-18T05:48:48.871Z,11.45
2023-04-18T05:51:33.893Z,11.59
2023-04-18T05:54:20.864Z,11.66
2023-04-18T05:57:07.858Z,11.88
2023-04-18T05:59:52.691Z,12.00
2023-04-18T06:02:37.705Z,11.92
2023-04-18T06:05:23.222Z,12.05
2023-04-18T06:08:08.178Z,12.28
2023-04-18T06:10:53.194Z,12.29
2023-04-18T06:13:38.276Z,12.54
2023-04-18T06:16:23.498Z,12.82
2023-04-18T06:19:08.566Z,13.17
2023-04-18T06:21:53.549Z,13.28
2023-04-18T06:24:41.974Z,13.61
2023-04-18T06:27:37.444Z,13.98
2023-04-18T06:30:22.536Z,14.14
2023-04-18T06:33:10.377Z,14.21
2023-04-18T06:35:55.441Z,14.20
2023-04-18T06:38:40.197Z,14.41
2023-04-18T06:41:25.197Z,14.73
2023-04-18T06:44:09.740Z,14.78
2023-04-18T06:46:55.160Z,15.04
2023-04-18T06:49:39.969Z,15.16
2023-04-18T06:52:25.007Z,15.03
2023-04-18T06:55:11.150Z,15.29
2023-04-18T06:57:56.020Z,15.72
2023-04-18T07:00:41.637Z,16.13
2023-04-18T07:03:26.549Z,16.33
2023-04-18T07:06:11.547Z,16.64
2023-04-18T07:09:00.279Z,16.39
2023-04-18T07:11:45.148Z,15.90
2023-04-18T07:14:32.264Z,15.49
2023-04-18T07:17:18.164Z,15.24
2023-04-18T07:20:03.448Z,15.20
2023-04-18T07:22:48.998Z,15.23
2023-04-18T07:25:34.182Z,15.45
2023-04-18T07:28:25.369Z,15.40
2023-04-18T07:31:10.958Z,15.55
2023-04-18T07:33:55.654Z,15.44
2023-04-18T07:37:09.615Z,15.26
2023-04-18T07:39:54.213Z,15.31
2023-04-18T07:42:45.682Z,15.27
2023-04-18T07:45:31.177Z,15.66
2023-04-18T07:48:16.356Z,16.02
2023-04-18T07:51:02.212Z,16.49
2023-04-18T07:53:46.920Z,16.76
2023-04-18T07:56:31.650Z,17.13
2023-04-18T07:59:17.004Z,17.88
2023-04-18T08:02:02.280Z,18.14
2023-04-18T08:05:01.781Z,18.48
2023-04-18T08:07:59.129Z,18.49
2023-04-18T08:10:44.254Z,18.52
2023-04-18T08:13:29.111Z,18.74
2023-04-18T08:16:16.390Z,18.70
2023-04-18T08:19:02.509Z,18.35
2023-04-18T08:21:50.896Z,17.69
2023-04-18T08:24:39.737Z,17.57
2023-04-18T08:27:25.183Z,17.61
2023-04-18T08:30:10.201Z,17.70
2023-04-18T08:32:54.939Z,18.06
2023-04-18T08:35:40.287Z,18.23
2023-04-18T08:38:25.231Z,18.31
2023-04-18T08:41:10.236Z,18.08
2023-04-18T08:43:56.988Z,17.92
2023-04-18T08:46:42.259Z,17.96
2023-04-18T08:49:27.829Z,17.73
2023-04-18T08:52:14.210Z,17.75
2023-04-18T08:54:59.212Z,17.77
2023-04-18T08:57:44.351Z,17.90
2023-04-18T09:00:29.912Z,17.96
2023-04-18T09:03:15.013Z,18.48
2023-04-18T09:06:11.821Z,18.92
2023-04-18T09:08:58.388Z,18.71
2023-04-18T09:11:43.152Z,18.69
2023-04-18T09:14:27.919Z,18.54
2023-04-18T09:17:17.580Z,19.06
2023-04-18T09:20:06.161Z,19.40
2023-04-18T09:22:53.696Z,19.03
2023-04-18T09:25:44.423Z,19.60
2023-04-18T09:28:32.696Z,20.22
2023-04-18T09:31:18.420Z,19.84
2023-04-18T09:34:04.620Z,19.12
2023-04-18T09:37:07.854Z,18.03
2023-04-18T09:39:53.661Z,18.32
2023-04-18T09:42:38.692Z,18.52
2023-04-18T09:45:24.637Z,18.74
2023-04-18T09:48:09.833Z,18.61
2023-04-18T09:50:58.007Z,18.68
2023-04-18T09:53:44.304Z,18.64
2023-04-18T09:56:33.957Z,18.53
2023-04-18T09:59:33.385Z,18.30
2023-04-18T10:02:21.553Z,18.21
2023-04-18T10:05:08.536Z,18.20
2023-04-18T10:07:54.627Z,17.86
2023-04-18T10:10:40.554Z,17.75
2023-04-18T10:13:28.109Z,17.33
2023-04-18T10:16:14.101Z,17.32
2023-04-18T10:19:35.310Z,17.22
2023-04-18T10:22:27.138Z,17.34
2023-04-18T10:25:12.295Z,17.38
2023-04-18T10:27:58.406Z,17.51
2023-04-18T10:30:43.832Z,17.67
2023-04-18T10:33:41.987Z,17.77
2023-04-18T10:36:27.744Z,17.75
2023-04-18T10:39:25.808Z,17.71
2023-04-18T10:42:10.747Z,17.75
2023-04-18T10:45:24.497Z,17.85
2023-04-18T10:48:30.690Z,18.00
2023-04-18T10:51:17.742Z,18.18
2023-04-18T10:54:06.912Z,18.16
2023-04-18T10:57:04.013Z,18.05
2023-04-18T10:59:53.107Z,17.93
2023-04-18T11:02:39.175Z,17.90
2023-04-18T11:05:27.529Z,18.04
2023-04-18T11:08:24.829Z,17.99
2023-04-18T11:11:10.711Z,17.95
2023-04-18T11:13:56.931Z,17.95
2023-04-18T11:16:42.299Z,17.99
2023-04-18T11:19:27.299Z,17.99
2023-04-18T11:22:13.058Z,17.97
2023-04-18T11:25:06.578Z,18.13
2023-04-18T11:27:52.770Z,18.21
2023-04-18T11:30:39.137Z,18.24
2023-04-18T11:33:27.574Z,18.11
2023-04-18T11:36:12.696Z,17.89
2023-04-18T11:38:57.817Z,17.65
2023-04-18T11:41:48.755Z,17.67
2023-04-18T11:44:36.208Z,18.02
2023-04-18T11:47:33.426Z,18.25
2023-04-18T11:50:18.050Z,18.55
2023-04-18T11:53:03.140Z,18.69
2023-04-18T11:55:55.493Z,18.60
2023-04-18T11:58:41.614Z,18.68
2023-04-18T12:01:26.730Z,18.65
2023-04-18T12:04:11.778Z,18.75
2023-04-18T12:06:57.000Z,18.86
2023-04-18T12:09:41.935Z,19.25
2023-04-18T12:12:27.181Z,19.46
2023-04-18T12:15:14.290Z,19.63
2023-04-18T12:18:00.941Z,19.61
2023-04-18T12:20:50.982Z,19.74
2023-04-18T12:23:38.346Z,19.80
2023-04-18T12:26:23.383Z,19.89
2023-04-18T12:29:08.176Z,19.63
2023-04-18T12:31:53.398Z,19.26
2023-04-18T12:34:38.083Z,19.03
2023-04-18T12:37:25.001Z,18.88
2023-04-18T12:40:10.470Z,19.06
2023-04-18T12:42:55.826Z,19.41
2023-04-18T12:45:40.595Z,20.11
2023-04-18T12:48:25.423Z,20.45
2023-04-18T12:51:10.453Z,20.71
2023-04-18T12:53:55.778Z,21.42
2023-04-18T12:56:40.499Z,22.37
2023-04-18T12:59:25.498Z,22.40
2023-04-18T13:02:10.818Z,22.25
2023-04-18T13:04:56.725Z,22.28
2023-04-18T13:07:47.501Z,22.32
2023-04-18T13:10:32.183Z,22.40
2023-04-18T13:13:17.164Z,22.44
2023-04-18T13:16:01.937Z,22.49
2023-04-18T13:18:46.625Z,22.19
2023-04-18T13:21:31.422Z,21.79
2023-04-18T13:24:16.565Z,21.26
2023-04-18T13:27:03.842Z,21.02
2023-04-18T13:29:48.572Z,20.96
2023-04-18T13:32:34.734Z,21.04
2023-04-18T13:35:19.377Z,21.18
2023-04-18T13:38:04.359Z,21.45
2023-04-18T13:40:53.756Z,21.98
2023-04-18T13:43:46.082Z,22.18
2023-04-18T13:46:30.873Z,21.88
2023-04-18T13:49:16.194Z,21.86
2023-04-18T13:52:01.178Z,21.38
2023-04-18T13:54:45.839Z,20.66
2023-04-18T13:57:33.968Z,20.10
2023-04-18T14:00:19.688Z,19.53
2023-04-18T14:03:04.705Z,19.22
2023-04-18T14:05:49.509Z,19.14
2023-04-18T14:08:34.419Z,18.97
2023-04-18T14:11:20.329Z,18.90
2023-04-18T14:14:05.351Z,18.72
2023-04-18T14:16:50.382Z,18.66
2023-04-18T14:19:35.175Z,18.43
2023-04-18T14:22:20.123Z,18.31
2023-04-18T14:25:05.354Z,18.04
2023-04-18T14:28:04.493Z,17.74
2023-04-18T14:30:49.346Z,17.46
2023-04-18T14:33:34.270Z,17.26
2023-04-18T14:36:19.252Z,16.94
2023-04-18T14:39:04.794Z,16.52
2023-04-18T14:41:49.659Z,16.11
2023-04-18T14:44:34.564Z,15.65
2023-04-18T14:47:19.561Z,15.27
2023-04-18T14:50:11.837Z,14.97
2023-04-18T14:52:56.553Z,14.77
2023-04-18T14:55:41.529Z,14.64
2023-04-18T14:58:26.429Z,14.44
2023-04-18T15:01:11.901Z,14.28
2023-04-18T15:03:56.649Z,14.21
2023-04-18T15:06:41.570Z,14.12
2023-04-18T15:09:26.538Z,14.05
2023-04-18T15:12:11.306Z,14.01
2023-04-18T15:14:56.237Z,13.95
2023-04-18T15:17:41.095Z,13.85
2023-04-18T15:20:26.018Z,13.78
2023-04-18T15:23:13.062Z,13.72
2023-04-18T15:25:58.774Z,13.67
2023-04-18T15:28:44.662Z,13.67
2023-04-18T15:31:30.209Z,13.63
2023-04-18T15:34:15.542Z,13.57
2023-04-18T15:37:00.350Z,13.57
2023-04-18T15:39:45.306Z,13.52
2023-04-18T15:42:30.382Z,13.49
2023-04-18T15:45:15.314Z,13.47
2023-04-18T15:48:00.414Z,13.42
2023-04-18T15:50:50.200Z,13.33
2023-04-18T15:53:35.039Z,13.28
2023-04-18T15:56:20.314Z,13.19
2023-04-18T15:59:06.207Z,13.12
2023-04-18T16:01:51.539Z,13.06
2023-04-18T16:04:36.288Z,13.00
2023-04-18T16:07:21.190Z,12.92
2023-04-18T16:10:09.357Z,12.82
2023-04-18T16:12:54.046Z,12.73
2023-04-18T16:15:40.933Z,12.63
2023-04-18T16:18:26.099Z,12.49
2023-04-18T16:21:14.824Z,12.35
2023-04-18T16:24:00.028Z,12.20
2023-04-18T16:26:44.717Z,12.12
2023-04-18T16:29:29.881Z,12.01
2023-04-18T16:32:14.558Z,11.93
2023-04-18T16:34:59.704Z,11.84
2023-04-18T16:37:44.756Z,11.75
2023-04-18T16:40:31.299Z,11.66
2023-04-18T16:43:16.359Z,11.58
2023-04-18T16:46:01.823Z,11.47
2023-04-18T16:48:47.366Z,11.36
2023-04-18T16:51:33.143Z,11.28
2023-04-18T16:54:17.579Z,11.20
2023-04-18T16:57:02.761Z,11.09
2023-04-18T16:59:47.527Z,11.00
2023-04-18T17:02:32.760Z,10.97
2023-04-18T17:05:18.166Z,10.91
2023-04-18T17:08:03.263Z,10.88
2023-04-18T17:10:51.812Z,10.81
2023-04-18T17:13:36.545Z,10.74
2023-04-18T17:16:21.616Z,10.68
2023-04-18T17:19:07.299Z,10.62
2023-04-18T17:21:52.108Z,10.59
2023-04-18T17:24:37.349Z,10.58
2023-04-18T17:27:22.431Z,10.53
2023-04-18T17:30:07.784Z,10.49
2023-04-18T17:32:52.552Z,10.45
2023-04-18T17:35:40.907Z,10.39
2023-04-18T17:38:25.727Z,10.37
2023-04-18T17:41:10.747Z,10.34
2023-04-18T17:43:57.434Z,10.28
2023-04-18T17:46:42.267Z,10.28
2023-04-18T17:49:33.796Z,10.26
2023-04-18T17:52:18.577Z,10.21
2023-04-18T17:55:03.556Z,10.18
2023-04-18T17:57:48.497Z,10.14
2023-04-18T18:00:33.539Z,10.12
2023-04-18T18:03:18.975Z,10.08
2023-04-18T18:06:03.940Z,10.07
2023-04-18T18:08:48.914Z,10.06
2023-04-18T18:11:33.510Z,10.04
2023-04-18T18:14:19.588Z,10.02
2023-04-18T18:17:05.204Z,9.99
2023-04-18T18:19:50.143Z,9.96
2023-04-18T18:22:35.541Z,9.96
2023-04-18T18:25:21.009Z,9.94
2023-04-18T18:28:06.596Z,9.89
2023-04-18T18:30:51.435Z,9.90
2023-04-18T18:33:36.569Z,9.89
2023-04-18T18:36:21.212Z,9.87
2023-04-18T18:39:05.953Z,9.83
2023-04-18T18:41:51.597Z,9.81
2023-04-18T18:44:36.357Z,9.78
2023-04-18T18:47:21.513Z,9.73
2023-04-18T18:50:07.004Z,9.72
2023-04-18T18:52:52.414Z,9.68
2023-04-18T18:55:37.352Z,9.63
2023-04-18T18:58:22.575Z,9.58
2023-04-18T19:01:07.706Z,9.56
2023-04-18T19:03:52.713Z,9.52
2023-04-18T19:06:37.440Z,9.45
2023-04-18T19:09:22.367Z,9.41
2023-04-18T19:12:08.032Z,9.40
2023-04-18T19:14:53.036Z,9.36
2023-04-18T19:17:38.260Z,9.33
2023-04-18T19:20:23.380Z,9.31
2023-04-18T19:23:07.900Z,9.27
2023-04-18T19:25:52.897Z,9.24
2023-04-18T19:28:37.787Z,9.22
2023-04-18T19:31:23.025Z,9.20
2023-04-18T19:34:07.913Z,9.16
2023-04-18T19:36:53.314Z,9.14
2023-04-18T19:39:38.035Z,9.11
2023-04-18T19:42:22.641Z,9.08
2023-04-18T19:45:08.042Z,9.09
2023-04-18T19:47:52.987Z,9.05
2023-04-18T19:50:44.120Z,9.04
2023-04-18T19:53:29.149Z,9.03
2023-04-18T19:56:14.379Z,9.03
2023-04-18T19:58:59.438Z,9.01
2023-04-18T20:01:44.498Z,9.01
2023-04-18T20:04:30.882Z,9.02
2023-04-18T20:07:15.820Z,9.01
2023-04-18T20:10:01.121Z,9.00
2023-04-18T20:12:46.082Z,8.98
2023-04-18T20:15:31.965Z,8.96
2023-04-18T20:18:17.424Z,8.97
2023-04-18T20:21:03.477Z,8.94
2023-04-18T20:23:48.481Z,8.92
2023-04-18T20:26:33.424Z,8.95
2023-04-18T20:29:19.761Z,8.95
2023-04-18T20:32:05.710Z,8.97
2023-04-18T20:34:50.782Z,8.98
2023-04-18T20:37:36.003Z,9.01
2023-04-18T20:40:21.233Z,9.02
2023-04-18T20:43:07.411Z,9.10
2023-04-18T20:45:53.240Z,9.15
2023-04-18T20:48:41.043Z,9.20
2023-04-18T20:51:26.432Z,9.23
2023-04-18T20:54:11.372Z,9.27
2023-04-18T20:56:56.386Z,9.30
2023-04-18T20:59:41.378Z,9.37
2023-04-18T21:02:26.573Z,9.37
2023-04-18T21:05:11.404Z,9.41
2023-04-18T21:07:58.990Z,9.42
2023-04-18T21:10:43.832Z,9.43
2023-04-18T21:13:28.545Z,9.41
2023-04-18T21:16:13.467Z,9.42
2023-04-18T21:18:58.427Z,9.37
2023-04-18T21:21:43.384Z,9.35
2023-04-18T21:24:28.134Z,9.31
2023-04-18T21:27:15.207Z,9.33
2023-04-18T21:30:00.916Z,9.29
2023-04-18T21:32:48.453Z,9.30
2023-04-18T21:35:33.294Z,9.26
2023-04-18T21:38:18.208Z,9.23
2023-04-18T21:41:04.968Z,9.16
2023-04-18T21:43:50.022Z,9.14
2023-04-18T21:46:35.015Z,9.17
2023-04-18T21:49:20.001Z,9.15
2023-04-18T21:52:05.260Z,9.16
2023-04-18T21:54:50.218Z,9.15
2023-04-18T21:57:35.094Z,9.14
2023-04-18T22:00:19.967Z,9.15
2023-04-18T22:03:04.976Z,9.13
2023-04-18T22:05:51.977Z,9.11
2023-04-18T22:08:36.850Z,9.13
2023-04-18T22:11:22.958Z,9.14
2023-04-18T22:14:09.330Z,9.17
2023-04-18T22:16:54.483Z,9.19
2023-04-18T22:19:40.973Z,9.16
2023-04-18T22:22:26.088Z,9.09
2023-04-18T22:25:11.069Z,9.14
2023-04-18T22:27:56.273Z,9.17
2023-04-18T22:30:41.099Z,9.15
2023-04-18T22:33:26.467Z,9.12
2023-04-18T22:36:11.252Z,9.08
2023-04-18T22:38:56.403Z,9.06
2023-04-18T22:41:41.317Z,9.03
2023-04-18T22:44:26.293Z,9.08
2023-04-18T22:47:11.356Z,9.11
2023-04-18T22:49:56.496Z,9.15
2023-04-18T22:52:41.420Z,9.07
2023-04-18T22:55:26.214Z,9.01
2023-04-18T22:58:11.159Z,9.02
2023-04-18T23:00:55.724Z,9.11
2023-04-18T23:03:40.883Z,9.18
2023-04-18T23:06:27.393Z,9.26
2023-04-18T23:09:12.212Z,9.22
2023-04-18T23:11:57.567Z,9.24
2023-04-18T23:14:42.394Z,9.19
2023-04-18T23:17:27.347Z,9.18
2023-04-18T23:20:13.164Z,9.15
2023-04-18T23:22:58.372Z,9.07
2023-04-18T23:25:43.586Z,9.03
2023-04-18T23:28:28.410Z,8.98
2023-04-18T23:31:13.478Z,8.92
2023-04-18T23:33:58.741Z,8.88
2023-04-18T23:36:43.603Z,8.83
2023-04-18T23:39:28.394Z,8.81
2023-04-18T23:42:13.444Z,8.75
2023-04-18T23:44:58.355Z,8.74
2023-04-18T23:47:43.371Z,8.74
2023-04-18T23:50:28.452Z,8.73
2023-04-18T23:53:13.353Z,8.70
2023-04-18T23:55:58.198Z,8.70
2023-04-18T23:58:42.588Z,8.68
